sensor_id;sensor_type;location;lat;lon;timestamp;pressure;altitude;pressure_sealevel;temperature;humidity
51147;BME280;37207;53.060;18.726;2023-07-24T00:02:24;99809.05;;;18.69;58.51
51147;BME280;37207;53.060;18.726;2023-07-24T00:04:50;99806.73;;;18.69;58.54
51147;BME280;37207;53.060;18.726;2023-07-24T00:07:17;99803.71;;;18.67;58.61
51147;BME280;37207;53.060;18.726;2023-07-24T00:09:44;99805.51;;;18.67;58.47
51147;BME280;37207;53.060;18.726;2023-07-24T00:12:10;99808.90;;;18.65;58.58
51147;BME280;37207;53.060;18.726;2023-07-24T00:14:37;99807.85;;;18.63;58.54
51147;BME280;37207;53.060;18.726;2023-07-24T00:17:03;99805.23;;;18.62;58.55
51147;BME280;37207;53.060;18.726;2023-07-24T00:19:30;99805.66;;;18.60;58.50
51147;BME280;37207;53.060;18.726;2023-07-24T00:21:57;99809.70;;;18.58;58.42
51147;BME280;37207;53.060;18.726;2023-07-24T00:24:23;99809.50;;;18.56;58.43
51147;BME280;37207;53.060;18.726;2023-07-24T00:26:50;99810.80;;;18.56;58.33
51147;BME280;37207;53.060;18.726;2023-07-24T00:29:18;99803.65;;;18.54;58.34
51147;BME280;37207;53.060;18.726;2023-07-24T00:31:44;99809.00;;;18.52;58.34
51147;BME280;37207;53.060;18.726;2023-07-24T00:34:11;99813.26;;;18.50;58.35
51147;BME280;37207;53.060;18.726;2023-07-24T00:36:40;99815.00;;;18.48;58.37
51147;BME280;37207;53.060;18.726;2023-07-24T00:39:07;99816.08;;;18.46;58.43
51147;BME280;37207;53.060;18.726;2023-07-24T00:41:33;99816.14;;;18.43;58.47
51147;BME280;37207;53.060;18.726;2023-07-24T00:44:00;99816.06;;;18.41;58.41
51147;BME280;37207;53.060;18.726;2023-07-24T00:46:27;99815.05;;;18.38;58.51
51147;BME280;37207;53.060;18.726;2023-07-24T00:48:58;99821.33;;;18.36;58.42
51147;BME280;37207;53.060;18.726;2023-07-24T00:51:27;99817.27;;;18.33;58.56
51147;BME280;37207;53.060;18.726;2023-07-24T00:54:01;99813.91;;;18.28;58.56
51147;BME280;37207;53.060;18.726;2023-07-24T00:56:29;99818.15;;;18.26;58.51
51147;BME280;37207;53.060;18.726;2023-07-24T00:58:56;99818.33;;;18.23;58.59
51147;BME280;37207;53.060;18.726;2023-07-24T01:01:24;99818.66;;;18.21;58.58
51147;BME280;37207;53.060;18.726;2023-07-24T01:03:52;99824.77;;;18.19;58.65
51147;BME280;37207;53.060;18.726;2023-07-24T01:06:18;99822.38;;;18.17;58.62
51147;BME280;37207;53.060;18.726;2023-07-24T01:08:45;99824.83;;;18.15;58.68
51147;BME280;37207;53.060;18.726;2023-07-24T01:11:17;99825.86;;;18.12;58.79
51147;BME280;37207;53.060;18.726;2023-07-24T01:13:56;99829.24;;;18.10;58.80
51147;BME280;37207;53.060;18.726;2023-07-24T01:16:28;99823.57;;;18.06;59.03
51147;BME280;37207;53.060;18.726;2023-07-24T01:18:59;99820.03;;;18.01;59.07
51147;BME280;37207;53.060;18.726;2023-07-24T01:21:33;99820.42;;;17.96;59.10
51147;BME280;37207;53.060;18.726;2023-07-24T01:26:41;99827.11;;;17.89;59.41
51147;BME280;37207;53.060;18.726;2023-07-24T01:29:08;99822.04;;;17.85;59.35
51147;BME280;37207;53.060;18.726;2023-07-24T01:31:34;99823.14;;;17.84;59.42
51147;BME280;37207;53.060;18.726;2023-07-24T01:34:01;99818.62;;;17.81;59.54
51147;BME280;37207;53.060;18.726;2023-07-24T01:36:28;99815.89;;;17.81;59.51
51147;BME280;37207;53.060;18.726;2023-07-24T01:38:54;99817.53;;;17.80;59.48
51147;BME280;37207;53.060;18.726;2023-07-24T01:41:21;99819.88;;;17.80;59.41
51147;BME280;37207;53.060;18.726;2023-07-24T01:43:48;99816.25;;;17.79;59.49
51147;BME280;37207;53.060;18.726;2023-07-24T01:46:15;99816.29;;;17.79;59.49
51147;BME280;37207;53.060;18.726;2023-07-24T01:48:43;99810.92;;;17.79;59.40
51147;BME280;37207;53.060;18.726;2023-07-24T01:51:10;99807.98;;;17.78;59.41
51147;BME280;37207;53.060;18.726;2023-07-24T01:53:36;99808.42;;;17.77;59.47
51147;BME280;37207;53.060;18.726;2023-07-24T01:56:03;99811.48;;;17.77;59.41
51147;BME280;37207;53.060;18.726;2023-07-24T01:58:29;99801.56;;;17.75;59.49
51147;BME280;37207;53.060;18.726;2023-07-24T02:00:56;99800.74;;;17.74;59.48
51147;BME280;37207;53.060;18.726;2023-07-24T02:03:23;99803.64;;;17.72;59.57
51147;BME280;37207;53.060;18.726;2023-07-24T02:05:50;99805.49;;;17.69;59.63
51147;BME280;37207;53.060;18.726;2023-07-24T02:08:17;99806.71;;;17.66;59.74
51147;BME280;37207;53.060;18.726;2023-07-24T02:10:48;99812.89;;;17.63;59.77
51147;BME280;37207;53.060;18.726;2023-07-24T02:13:16;99805.67;;;17.61;59.90
51147;BME280;37207;53.060;18.726;2023-07-24T02:15:48;99800.05;;;17.58;59.98
51147;BME280;37207;53.060;18.726;2023-07-24T02:18:14;99795.07;;;17.56;60.10
51147;BME280;37207;53.060;18.726;2023-07-24T02:20:41;99802.92;;;17.53;60.17
51147;BME280;37207;53.060;18.726;2023-07-24T02:23:09;99799.48;;;17.51;60.27
51147;BME280;37207;53.060;18.726;2023-07-24T02:25:36;99801.90;;;17.48;60.26
51147;BME280;37207;53.060;18.726;2023-07-24T02:28:02;99799.00;;;17.46;60.29
51147;BME280;37207;53.060;18.726;2023-07-24T02:30:29;99796.95;;;17.45;60.33
51147;BME280;37207;53.060;18.726;2023-07-24T02:32:56;99801.77;;;17.43;60.48
51147;BME280;37207;53.060;18.726;2023-07-24T02:35:23;99805.04;;;17.40;60.53
51147;BME280;37207;53.060;18.726;2023-07-24T02:37:51;99811.86;;;17.37;60.75
51147;BME280;37207;53.060;18.726;2023-07-24T02:40:20;99812.33;;;17.33;60.90
51147;BME280;37207;53.060;18.726;2023-07-24T02:43:09;99810.61;;;17.28;61.20
51147;BME280;37207;53.060;18.726;2023-07-24T02:46:01;99810.17;;;17.24;61.40
51147;BME280;37207;53.060;18.726;2023-07-24T02:48:29;99807.66;;;17.20;61.65
51147;BME280;37207;53.060;18.726;2023-07-24T02:50:59;99807.04;;;17.15;61.78
51147;BME280;37207;53.060;18.726;2023-07-24T02:53:31;99804.77;;;17.11;62.01
51147;BME280;37207;53.060;18.726;2023-07-24T02:56:01;99801.60;;;17.06;62.22
51147;BME280;37207;53.060;18.726;2023-07-24T02:58:43;99801.31;;;17.01;62.30
51147;BME280;37207;53.060;18.726;2023-07-24T03:01:11;99807.27;;;16.98;62.47
51147;BME280;37207;53.060;18.726;2023-07-24T03:03:41;99804.31;;;16.96;62.55
51147;BME280;37207;53.060;18.726;2023-07-24T03:06:07;99806.53;;;16.95;62.52
51147;BME280;37207;53.060;18.726;2023-07-24T03:08:34;99806.39;;;16.95;62.58
51147;BME280;37207;53.060;18.726;2023-07-24T03:11:04;99804.86;;;16.95;62.60
51147;BME280;37207;53.060;18.726;2023-07-24T03:13:31;99803.05;;;16.96;62.61
51147;BME280;37207;53.060;18.726;2023-07-24T03:15:58;99801.17;;;16.97;62.65
51147;BME280;37207;53.060;18.726;2023-07-24T03:18:25;99802.81;;;16.98;62.59
51147;BME280;37207;53.060;18.726;2023-07-24T03:20:52;99803.94;;;17.00;62.73
51147;BME280;37207;53.060;18.726;2023-07-24T03:23:18;99801.20;;;17.02;62.71
51147;BME280;37207;53.060;18.726;2023-07-24T03:25:46;99802.66;;;17.04;62.80
51147;BME280;37207;53.060;18.726;2023-07-24T03:28:13;99809.16;;;17.06;62.75
51147;BME280;37207;53.060;18.726;2023-07-24T03:30:41;99809.95;;;17.09;62.72
51147;BME280;37207;53.060;18.726;2023-07-24T03:33:17;99810.60;;;17.11;62.87
51147;BME280;37207;53.060;18.726;2023-07-24T03:35:47;99810.80;;;17.13;62.88
51147;BME280;37207;53.060;18.726;2023-07-24T03:38:16;99813.66;;;17.15;62.84
51147;BME280;37207;53.060;18.726;2023-07-24T03:40:44;99809.80;;;17.17;62.84
51147;BME280;37207;53.060;18.726;2023-07-24T03:43:10;99808.17;;;17.19;62.87
51147;BME280;37207;53.060;18.726;2023-07-24T03:45:37;99806.88;;;17.20;62.82
51147;BME280;37207;53.060;18.726;2023-07-24T03:48:04;99804.42;;;17.21;62.96
51147;BME280;37207;53.060;18.726;2023-07-24T03:50:31;99808.45;;;17.21;63.05
51147;BME280;37207;53.060;18.726;2023-07-24T03:53:00;99805.02;;;17.20;63.07
51147;BME280;37207;53.060;18.726;2023-07-24T03:55:27;99802.52;;;17.20;63.07
51147;BME280;37207;53.060;18.726;2023-07-24T03:57:54;99807.59;;;17.20;63.19
51147;BME280;37207;53.060;18.726;2023-07-24T04:00:21;99808.10;;;17.20;63.22
51147;BME280;37207;53.060;18.726;2023-07-24T04:02:47;99799.53;;;17.18;63.39
51147;BME280;37207;53.060;18.726;2023-07-24T04:05:14;99800.83;;;17.17;63.51
51147;BME280;37207;53.060;18.726;2023-07-24T04:07:46;99805.21;;;17.16;63.53
51147;BME280;37207;53.060;18.726;2023-07-24T04:10:37;99806.45;;;17.16;63.55
51147;BME280;37207;53.060;18.726;2023-07-24T04:13:23;99803.06;;;17.17;63.63
51147;BME280;37207;53.060;18.726;2023-07-24T04:16:11;99795.94;;;17.19;63.71
51147;BME280;37207;53.060;18.726;2023-07-24T04:18:38;99797.59;;;17.22;63.73
51147;BME280;37207;53.060;18.726;2023-07-24T04:21:25;99801.21;;;17.25;63.74
51147;BME280;37207;53.060;18.726;2023-07-24T04:23:58;99806.98;;;17.28;63.82
51147;BME280;37207;53.060;18.726;2023-07-24T04:26:24;99812.00;;;17.31;63.90
51147;BME280;37207;53.060;18.726;2023-07-24T04:28:51;99811.44;;;17.34;63.95
51147;BME280;37207;53.060;18.726;2023-07-24T04:31:17;99809.44;;;17.37;64.02
51147;BME280;37207;53.060;18.726;2023-07-24T04:33:44;99807.63;;;17.39;64.00
51147;BME280;37207;53.060;18.726;2023-07-24T04:36:31;99802.48;;;17.43;63.95
51147;BME280;37207;53.060;18.726;2023-07-24T04:39:06;99806.34;;;17.46;64.03
51147;BME280;37207;53.060;18.726;2023-07-24T04:41:49;99808.91;;;17.48;64.06
51147;BME280;37207;53.060;18.726;2023-07-24T04:44:35;99804.36;;;17.51;64.01
51147;BME280;37207;53.060;18.726;2023-07-24T04:47:02;99801.16;;;17.52;64.16
51147;BME280;37207;53.060;18.726;2023-07-24T04:49:29;99803.14;;;17.54;64.28
51147;BME280;37207;53.060;18.726;2023-07-24T04:51:57;99803.20;;;17.56;64.34
51147;BME280;37207;53.060;18.726;2023-07-24T04:54:25;99802.88;;;17.58;64.38
51147;BME280;37207;53.060;18.726;2023-07-24T04:56:52;99803.13;;;17.62;64.48
51147;BME280;37207;53.060;18.726;2023-07-24T04:59:18;99806.80;;;17.70;64.47
51147;BME280;37207;53.060;18.726;2023-07-24T05:01:47;99808.80;;;17.78;64.42
51147;BME280;37207;53.060;18.726;2023-07-24T05:04:14;99815.73;;;17.85;64.39
51147;BME280;37207;53.060;18.726;2023-07-24T05:06:41;99815.83;;;17.90;64.42
51147;BME280;37207;53.060;18.726;2023-07-24T05:09:07;99817.48;;;17.95;64.40
51147;BME280;37207;53.060;18.726;2023-07-24T05:11:34;99820.48;;;18.00;64.41
51147;BME280;37207;53.060;18.726;2023-07-24T05:14:01;99825.05;;;18.04;64.35
51147;BME280;37207;53.060;18.726;2023-07-24T05:16:27;99823.05;;;18.06;64.38
51147;BME280;37207;53.060;18.726;2023-07-24T05:18:54;99824.02;;;18.09;64.39
51147;BME280;37207;53.060;18.726;2023-07-24T05:21:20;99825.38;;;18.12;64.44
51147;BME280;37207;53.060;18.726;2023-07-24T05:23:47;99820.36;;;18.15;64.44
51147;BME280;37207;53.060;18.726;2023-07-24T05:26:14;99826.65;;;18.18;64.57
51147;BME280;37207;53.060;18.726;2023-07-24T05:28:40;99831.97;;;18.21;64.70
51147;BME280;37207;53.060;18.726;2023-07-24T05:31:07;99835.29;;;18.24;64.89
51147;BME280;37207;53.060;18.726;2023-07-24T05:33:34;99833.84;;;18.23;65.16
51147;BME280;37207;53.060;18.726;2023-07-24T05:36:02;99832.20;;;18.22;65.44
51147;BME280;37207;53.060;18.726;2023-07-24T05:38:30;99831.07;;;18.20;65.56
51147;BME280;37207;53.060;18.726;2023-07-24T05:40:58;99836.70;;;18.19;65.67
51147;BME280;37207;53.060;18.726;2023-07-24T05:43:26;99837.90;;;18.19;65.87
51147;BME280;37207;53.060;18.726;2023-07-24T05:45:54;99835.29;;;18.19;66.01
51147;BME280;37207;53.060;18.726;2023-07-24T05:48:21;99836.81;;;18.21;66.30
51147;BME280;37207;53.060;18.726;2023-07-24T05:50:48;99842.96;;;18.21;66.29
51147;BME280;37207;53.060;18.726;2023-07-24T05:53:15;99848.77;;;18.20;66.55
51147;BME280;37207;53.060;18.726;2023-07-24T05:55:42;99850.45;;;18.20;66.86
51147;BME280;37207;53.060;18.726;2023-07-24T05:58:10;99851.55;;;18.18;67.21
51147;BME280;37207;53.060;18.726;2023-07-24T06:00:37;99858.17;;;18.13;67.87
51147;BME280;37207;53.060;18.726;2023-07-24T06:03:03;99854.08;;;18.05;68.66
51147;BME280;37207;53.060;18.726;2023-07-24T06:05:30;99853.77;;;17.94;69.58
51147;BME280;37207;53.060;18.726;2023-07-24T06:07:57;99850.67;;;17.82;70.08
51147;BME280;37207;53.060;18.726;2023-07-24T06:10:23;99848.92;;;17.71;70.65
51147;BME280;37207;53.060;18.726;2023-07-24T06:12:50;99843.08;;;17.62;71.62
51147;BME280;37207;53.060;18.726;2023-07-24T06:15:16;99841.58;;;17.56;71.95
51147;BME280;37207;53.060;18.726;2023-07-24T06:17:43;99840.64;;;17.53;72.67
51147;BME280;37207;53.060;18.726;2023-07-24T06:20:10;99841.73;;;17.50;72.89
51147;BME280;37207;53.060;18.726;2023-07-24T06:22:36;99841.65;;;17.49;73.08
51147;BME280;37207;53.060;18.726;2023-07-24T06:25:03;99844.80;;;17.49;73.32
51147;BME280;37207;53.060;18.726;2023-07-24T06:27:29;99846.77;;;17.47;73.60
51147;BME280;37207;53.060;18.726;2023-07-24T06:29:56;99848.85;;;17.46;73.85
51147;BME280;37207;53.060;18.726;2023-07-24T06:32:23;99850.32;;;17.44;74.29
51147;BME280;37207;53.060;18.726;2023-07-24T06:34:49;99854.81;;;17.41;74.77
51147;BME280;37207;53.060;18.726;2023-07-24T06:37:16;99861.30;;;17.37;75.06
51147;BME280;37207;53.060;18.726;2023-07-24T06:39:42;99863.37;;;17.36;75.33
51147;BME280;37207;53.060;18.726;2023-07-24T06:42:10;99858.02;;;17.35;75.58
51147;BME280;37207;53.060;18.726;2023-07-24T06:44:36;99858.42;;;17.36;75.65
51147;BME280;37207;53.060;18.726;2023-07-24T06:47:03;99859.04;;;17.38;76.00
51147;BME280;37207;53.060;18.726;2023-07-24T06:49:29;99856.67;;;17.42;76.11
51147;BME280;37207;53.060;18.726;2023-07-24T06:51:56;99855.09;;;17.45;76.33
51147;BME280;37207;53.060;18.726;2023-07-24T06:54:22;99863.00;;;17.51;76.27
51147;BME280;37207;53.060;18.726;2023-07-24T06:56:49;99863.19;;;17.57;76.59
51147;BME280;37207;53.060;18.726;2023-07-24T06:59:15;99853.40;;;17.64;76.71
51147;BME280;37207;53.060;18.726;2023-07-24T07:01:42;99855.94;;;17.73;76.88
51147;BME280;37207;53.060;18.726;2023-07-24T07:04:08;99854.14;;;17.82;77.03
51147;BME280;37207;53.060;18.726;2023-07-24T07:06:35;99839.73;;;17.91;76.90
51147;BME280;37207;53.060;18.726;2023-07-24T07:09:01;99836.38;;;18.01;76.86
51147;BME280;37207;53.060;18.726;2023-07-24T07:11:28;99832.20;;;18.16;76.78
51147;BME280;37207;53.060;18.726;2023-07-24T07:13:55;99833.19;;;18.35;77.04
51147;BME280;37207;53.060;18.726;2023-07-24T07:16:21;99826.92;;;18.54;77.22
51147;BME280;37207;53.060;18.726;2023-07-24T07:18:48;99816.29;;;18.64;76.72
51147;BME280;37207;53.060;18.726;2023-07-24T07:21:14;99811.66;;;18.69;76.52
51147;BME280;37207;53.060;18.726;2023-07-24T07:23:41;99807.95;;;18.71;76.56
51147;BME280;37207;53.060;18.726;2023-07-24T07:26:07;99802.16;;;18.77;76.70
51147;BME280;37207;53.060;18.726;2023-07-24T07:28:34;99795.62;;;18.85;76.94
51147;BME280;37207;53.060;18.726;2023-07-24T07:31:00;99796.64;;;18.93;76.59
51147;BME280;37207;53.060;18.726;2023-07-24T07:33:27;99803.10;;;18.99;76.56
51147;BME280;37207;53.060;18.726;2023-07-24T07:35:54;99800.89;;;19.09;76.12
51147;BME280;37207;53.060;18.726;2023-07-24T07:38:20;99795.91;;;19.18;75.96
51147;BME280;37207;53.060;18.726;2023-07-24T07:40:49;99797.11;;;19.26;75.90
51147;BME280;37207;53.060;18.726;2023-07-24T07:43:15;99788.90;;;19.34;76.20
51147;BME280;37207;53.060;18.726;2023-07-24T07:45:42;99782.26;;;19.35;75.79
51147;BME280;37207;53.060;18.726;2023-07-24T07:48:08;99776.89;;;19.34;75.90
51147;BME280;37207;53.060;18.726;2023-07-24T07:50:35;99776.98;;;19.37;75.76
51147;BME280;37207;53.060;18.726;2023-07-24T07:53:01;99781.46;;;19.43;75.64
51147;BME280;37207;53.060;18.726;2023-07-24T07:55:28;99785.11;;;19.53;75.52
51147;BME280;37207;53.060;18.726;2023-07-24T07:57:54;99785.73;;;19.61;75.93
51147;BME280;37207;53.060;18.726;2023-07-24T08:00:21;99784.41;;;19.65;75.35
51147;BME280;37207;53.060;18.726;2023-07-24T08:02:48;99790.05;;;19.72;75.12
51147;BME280;37207;53.060;18.726;2023-07-24T08:05:14;99793.67;;;19.78;75.10
51147;BME280;37207;53.060;18.726;2023-07-24T08:07:41;99786.33;;;19.83;75.11
51147;BME280;37207;53.060;18.726;2023-07-24T08:10:08;99784.76;;;19.84;74.97
51147;BME280;37207;53.060;18.726;2023-07-24T08:12:35;99774.77;;;19.87;74.96
51147;BME280;37207;53.060;18.726;2023-07-24T08:15:01;99769.02;;;19.94;75.34
51147;BME280;37207;53.060;18.726;2023-07-24T08:17:29;99764.71;;;20.01;75.31
51147;BME280;37207;53.060;18.726;2023-07-24T08:19:56;99756.42;;;20.10;75.61
51147;BME280;37207;53.060;18.726;2023-07-24T08:22:22;99754.46;;;20.32;75.79
51147;BME280;37207;53.060;18.726;2023-07-24T08:24:49;99754.42;;;20.65;75.72
51147;BME280;37207;53.060;18.726;2023-07-24T08:27:17;99753.02;;;20.96;74.94
51147;BME280;37207;53.060;18.726;2023-07-24T08:29:44;99756.46;;;21.25;74.80
51147;BME280;37207;53.060;18.726;2023-07-24T08:32:11;99753.48;;;21.51;74.19
51147;BME280;37207;53.060;18.726;2023-07-24T08:34:37;99749.50;;;21.57;73.48
51147;BME280;37207;53.060;18.726;2023-07-24T08:37:04;99749.55;;;21.61;73.25
51147;BME280;37207;53.060;18.726;2023-07-24T08:39:31;99752.13;;;21.67;73.09
51147;BME280;37207;53.060;18.726;2023-07-24T08:41:58;99745.15;;;21.73;72.68
51147;BME280;37207;53.060;18.726;2023-07-24T08:44:28;99743.64;;;21.79;72.67
51147;BME280;37207;53.060;18.726;2023-07-24T08:46:59;99736.62;;;21.94;72.28
51147;BME280;37207;53.060;18.726;2023-07-24T08:49:26;99726.41;;;22.06;72.17
51147;BME280;37207;53.060;18.726;2023-07-24T08:51:56;99727.16;;;22.23;71.75
51147;BME280;37207;53.060;18.726;2023-07-24T08:54:26;99723.51;;;22.51;71.85
51147;BME280;37207;53.060;18.726;2023-07-24T08:56:53;99716.69;;;22.79;71.37
51147;BME280;37207;53.060;18.726;2023-07-24T08:59:20;99704.73;;;23.00;70.88
51147;BME280;37207;53.060;18.726;2023-07-24T09:01:47;99704.79;;;23.26;70.28
51147;BME280;37207;53.060;18.726;2023-07-24T09:04:13;99699.70;;;23.52;70.06
51147;BME280;37207;53.060;18.726;2023-07-24T09:06:40;99704.68;;;23.87;70.14
51147;BME280;37207;53.060;18.726;2023-07-24T09:09:15;99706.44;;;24.21;69.07
51147;BME280;37207;53.060;18.726;2023-07-24T09:11:48;99711.02;;;24.54;67.64
51147;BME280;37207;53.060;18.726;2023-07-24T09:14:25;99710.14;;;24.81;66.63
51147;BME280;37207;53.060;18.726;2023-07-24T09:17:06;99709.21;;;25.13;65.30
51147;BME280;37207;53.060;18.726;2023-07-24T09:19:33;99710.09;;;25.51;65.38
51147;BME280;37207;53.060;18.726;2023-07-24T09:22:11;99698.50;;;26.07;63.97
51147;BME280;37207;53.060;18.726;2023-07-24T09:24:49;99690.52;;;26.98;62.13
51147;BME280;37207;53.060;18.726;2023-07-24T09:27:16;99686.00;;;27.87;57.85
51147;BME280;37207;53.060;18.726;2023-07-24T09:29:42;99682.61;;;28.26;55.82
51147;BME280;37207;53.060;18.726;2023-07-24T09:32:23;99678.79;;;28.49;55.24
51147;BME280;37207;53.060;18.726;2023-07-24T09:34:51;99670.42;;;28.66;54.18
51147;BME280;37207;53.060;18.726;2023-07-24T09:37:24;99668.83;;;28.60;52.62
51147;BME280;37207;53.060;18.726;2023-07-24T09:39:52;99668.31;;;28.78;51.66
51147;BME280;37207;53.060;18.726;2023-07-24T09:42:28;99658.69;;;28.94;49.97
51147;BME280;37207;53.060;18.726;2023-07-24T09:44:54;99657.71;;;28.82;50.00
51147;BME280;37207;53.060;18.726;2023-07-24T09:47:21;99655.16;;;28.65;50.48
51147;BME280;37207;53.060;18.726;2023-07-24T09:49:48;99652.45;;;28.67;49.99
51147;BME280;37207;53.060;18.726;2023-07-24T09:52:15;99646.21;;;28.85;49.74
51147;BME280;37207;53.060;18.726;2023-07-24T09:57:32;99637.48;;;29.26;48.15
51147;BME280;37207;53.060;18.726;2023-07-24T09:59:59;99634.70;;;29.49;48.80
51147;BME280;37207;53.060;18.726;2023-07-24T10:02:29;99639.80;;;29.81;48.14
51147;BME280;37207;53.060;18.726;2023-07-24T10:05:00;99634.64;;;29.99;47.49
51147;BME280;37207;53.060;18.726;2023-07-24T10:07:27;99637.04;;;29.93;46.97
51147;BME280;37207;53.060;18.726;2023-07-24T10:09:54;99631.89;;;29.92;46.35
51147;BME280;37207;53.060;18.726;2023-07-24T10:12:22;99625.81;;;30.00;45.58
51147;BME280;37207;53.060;18.726;2023-07-24T10:14:50;99622.93;;;30.16;45.68
51147;BME280;37207;53.060;18.726;2023-07-24T10:17:37;99622.06;;;30.32;44.89
51147;BME280;37207;53.060;18.726;2023-07-24T10:20:05;99618.25;;;30.23;43.37
51147;BME280;37207;53.060;18.726;2023-07-24T10:22:33;99612.67;;;30.08;43.71
51147;BME280;37207;53.060;18.726;2023-07-24T10:25:00;99608.36;;;30.18;43.87
51147;BME280;37207;53.060;18.726;2023-07-24T10:27:26;99603.60;;;30.37;44.12
51147;BME280;37207;53.060;18.726;2023-07-24T10:30:02;99596.10;;;30.73;44.36
51147;BME280;37207;53.060;18.726;2023-07-24T10:32:30;99601.08;;;30.95;43.14
51147;BME280;37207;53.060;18.726;2023-07-24T10:35:06;99598.45;;;30.71;42.22
51147;BME280;37207;53.060;18.726;2023-07-24T10:37:37;99598.32;;;30.51;42.74
51147;BME280;37207;53.060;18.726;2023-07-24T10:40:05;99592.19;;;30.30;42.14
51147;BME280;37207;53.060;18.726;2023-07-24T10:42:36;99591.48;;;30.02;42.62
51147;BME280;37207;53.060;18.726;2023-07-24T10:45:07;99586.23;;;29.76;42.48
51147;BME280;37207;53.060;18.726;2023-07-24T10:47:34;99578.83;;;29.56;42.89
51147;BME280;37207;53.060;18.726;2023-07-24T10:50:02;99569.34;;;29.78;42.80
51147;BME280;37207;53.060;18.726;2023-07-24T10:52:30;99563.91;;;30.13;42.54
51147;BME280;37207;53.060;18.726;2023-07-24T10:55:00;99568.77;;;30.28;41.78
51147;BME280;37207;53.060;18.726;2023-07-24T10:57:27;99564.45;;;30.45;41.08
51147;BME280;37207;53.060;18.726;2023-07-24T10:59:54;99569.06;;;30.75;40.73
51147;BME280;37207;53.060;18.726;2023-07-24T11:02:20;99565.39;;;31.20;39.79
51147;BME280;37207;53.060;18.726;2023-07-24T11:04:47;99559.04;;;31.90;39.07
51147;BME280;37207;53.060;18.726;2023-07-24T11:07:14;99561.05;;;32.75;38.80
51147;BME280;37207;53.060;18.726;2023-07-24T11:09:41;99562.92;;;33.42;37.08
51147;BME280;37207;53.060;18.726;2023-07-24T11:12:32;99566.30;;;33.55;36.21
51147;BME280;37207;53.060;18.726;2023-07-24T11:14:59;99562.30;;;33.20;36.30
51147;BME280;37207;53.060;18.726;2023-07-24T11:17:35;99560.27;;;32.67;37.04
51147;BME280;37207;53.060;18.726;2023-07-24T11:22:33;99547.36;;;31.95;37.35
51147;BME280;37207;53.060;18.726;2023-07-24T11:25:00;99544.13;;;31.92;37.35
51147;BME280;37207;53.060;18.726;2023-07-24T11:27:27;99538.91;;;32.38;36.52
51147;BME280;37207;53.060;18.726;2023-07-24T11:29:54;99533.28;;;32.14;36.44
51147;BME280;37207;53.060;18.726;2023-07-24T11:32:21;99534.02;;;31.98;36.54
51147;BME280;37207;53.060;18.726;2023-07-24T11:34:49;99531.77;;;31.61;37.18
51147;BME280;37207;53.060;18.726;2023-07-24T11:37:17;99530.73;;;31.44;37.20
51147;BME280;37207;53.060;18.726;2023-07-24T11:40:00;99532.69;;;31.47;37.22
51147;BME280;37207;53.060;18.726;2023-07-24T11:42:37;99527.98;;;31.04;37.27
51147;BME280;37207;53.060;18.726;2023-07-24T11:45:06;99526.20;;;30.87;37.66
51147;BME280;37207;53.060;18.726;2023-07-24T11:47:47;99526.80;;;30.99;37.82
51147;BME280;37207;53.060;18.726;2023-07-24T11:50:16;99526.25;;;30.84;37.86
51147;BME280;37207;53.060;18.726;2023-07-24T11:52:51;99531.66;;;30.88;38.15
51147;BME280;37207;53.060;18.726;2023-07-24T11:55:19;99528.05;;;30.79;37.98
51147;BME280;37207;53.060;18.726;2023-07-24T11:57:59;99527.49;;;30.72;37.97
51147;BME280;37207;53.060;18.726;2023-07-24T12:00:26;99531.48;;;30.75;37.69
51147;BME280;37207;53.060;18.726;2023-07-24T12:02:59;99525.48;;;30.79;37.13
51147;BME280;37207;53.060;18.726;2023-07-24T12:05:26;99518.02;;;30.89;37.05
51147;BME280;37207;53.060;18.726;2023-07-24T12:07:54;99518.08;;;31.06;36.85
51147;BME280;37207;53.060;18.726;2023-07-24T12:10:27;99514.95;;;31.10;36.33
51147;BME280;37207;53.060;18.726;2023-07-24T12:12:58;99510.20;;;31.28;36.84
51147;BME280;37207;53.060;18.726;2023-07-24T12:15:25;99510.52;;;31.33;36.08
51147;BME280;37207;53.060;18.726;2023-07-24T12:17:53;99507.58;;;31.23;36.11
51147;BME280;37207;53.060;18.726;2023-07-24T12:20:20;99502.73;;;31.23;36.75
51147;BME280;37207;53.060;18.726;2023-07-24T12:22:46;99507.05;;;31.32;36.32
51147;BME280;37207;53.060;18.726;2023-07-24T12:25:13;99504.04;;;31.39;36.08
51147;BME280;37207;53.060;18.726;2023-07-24T12:27:40;99500.02;;;31.43;35.74
51147;BME280;37207;53.060;18.726;2023-07-24T12:30:08;99491.58;;;31.51;35.91
51147;BME280;37207;53.060;18.726;2023-07-24T12:32:35;99481.98;;;31.37;36.15
51147;BME280;37207;53.060;18.726;2023-07-24T12:35:01;99481.23;;;31.32;36.17
51147;BME280;37207;53.060;18.726;2023-07-24T12:37:28;99477.42;;;31.17;35.97
51147;BME280;37207;53.060;18.726;2023-07-24T12:39:55;99483.88;;;31.06;36.01
51147;BME280;37207;53.060;18.726;2023-07-24T12:42:21;99480.33;;;31.07;36.10
51147;BME280;37207;53.060;18.726;2023-07-24T12:44:48;99467.46;;;30.91;36.29
51147;BME280;37207;53.060;18.726;2023-07-24T12:47:15;99465.17;;;30.83;36.00
51147;BME280;37207;53.060;18.726;2023-07-24T12:49:41;99466.56;;;30.66;36.18
51147;BME280;37207;53.060;18.726;2023-07-24T12:52:08;99456.75;;;30.52;36.40
51147;BME280;37207;53.060;18.726;2023-07-24T12:54:35;99453.99;;;30.54;36.46
51147;BME280;37207;53.060;18.726;2023-07-24T12:57:01;99454.25;;;30.60;36.08
51147;BME280;37207;53.060;18.726;2023-07-24T12:59:31;99456.13;;;30.47;35.99
51147;BME280;37207;53.060;18.726;2023-07-24T13:01:57;99449.28;;;30.32;35.81
51147;BME280;37207;53.060;18.726;2023-07-24T13:04:24;99439.80;;;30.26;35.90
51147;BME280;37207;53.060;18.726;2023-07-24T13:06:50;99440.22;;;30.29;36.32